createdAt,value
2022-08-17T00:00:34.532Z,20.10
2022-08-17T00:05:40.606Z,20.10
2022-08-17T00:10:40.490Z,20.00
2022-08-17T00:15:40.072Z,20.00
2022-08-17T00:20:39.353Z,19.90
2022-08-17T00:25:38.369Z,19.90
2022-08-17T00:30:51.068Z,19.80
2022-08-17T00:35:53.404Z,19.80
2022-08-17T00:40:59.054Z,19.80
2022-08-17T00:45:59.742Z,19.70
2022-08-17T00:51:11.325Z,19.70
2022-08-17T00:56:17.147Z,19.60
2022-08-17T01:01:21.368Z,19.60
2022-08-17T01:06:22.983Z,19.50
2022-08-17T01:11:22.461Z,19.42
2022-08-17T01:16:25.589Z,19.40
2022-08-17T01:21:34.806Z,19.30
2022-08-17T01:26:36.067Z,19.30
2022-08-17T01:31:41.705Z,19.30
2022-08-17T01:36:43.030Z,19.26
2022-08-17T01:41:43.705Z,19.20
2022-08-17T01:46:43.519Z,19.20
2022-08-17T01:51:42.835Z,19.20
2022-08-17T01:56:47.101Z,19.20
2022-08-17T02:01:47.134Z,19.20
2022-08-17T02:06:53.102Z,19.20
2022-08-17T02:11:54.218Z,19.12
2022-08-17T02:16:53.127Z,19.10
2022-08-17T02:21:55.285Z,19.10
2022-08-17T02:26:54.213Z,19.10
2022-08-17T02:31:52.827Z,19.10
2022-08-17T02:36:53.491Z,19.02
2022-08-17T02:42:01.192Z,19.00
2022-08-17T02:46:59.878Z,19.00
2022-08-17T02:51:59.474Z,19.00
2022-08-17T02:56:58.317Z,19.00
2022-08-17T03:01:57.448Z,19.00
2022-08-17T03:06:55.984Z,19.00
2022-08-17T03:11:56.223Z,18.90
2022-08-17T03:16:55.165Z,18.90
2022-08-17T03:21:55.413Z,18.90
2022-08-17T03:26:54.142Z,18.90
2022-08-17T03:31:53.727Z,18.90
2022-08-17T03:36:52.185Z,18.90
2022-08-17T03:41:50.903Z,18.90
2022-08-17T03:47:07.161Z,18.90
2022-08-17T03:52:23.669Z,19.00
2022-08-17T03:57:23.156Z,18.98
2022-08-17T04:02:25.625Z,18.94
2022-08-17T04:07:31.811Z,18.98
2022-08-17T04:12:43.599Z,19.00
2022-08-17T04:17:44.300Z,19.00
2022-08-17T04:22:55.837Z,19.04
2022-08-17T04:27:55.228Z,19.10
2022-08-17T04:33:07.235Z,19.20
2022-08-17T04:38:07.546Z,19.30
2022-08-17T04:43:10.487Z,19.40
2022-08-17T04:48:10.500Z,19.40
2022-08-17T04:53:09.380Z,19.56
2022-08-17T04:58:09.270Z,19.70
2022-08-17T05:03:09.307Z,19.78
2022-08-17T05:08:10.145Z,19.90
2022-08-17T05:13:12.507Z,20.00
2022-08-17T05:18:12.723Z,20.10
2022-08-17T05:23:16.161Z,20.30
2022-08-17T05:28:16.157Z,20.50
2022-08-17T05:33:19.146Z,20.60
2022-08-17T05:38:20.218Z,20.70
2022-08-17T05:43:23.655Z,20.80
2022-08-17T05:48:22.444Z,20.90
2022-08-17T05:53:50.461Z,21.00
2022-08-17T05:59:12.149Z,21.10
2022-08-17T06:04:29.661Z,21.30
2022-08-17T06:09:41.278Z,21.46
2022-08-17T06:15:19.704Z,21.60
2022-08-17T06:20:19.939Z,21.80
2022-08-17T06:25:24.212Z,22.00
2022-08-17T06:30:27.984Z,22.20
2022-08-17T06:35:37.957Z,22.36
2022-08-17T06:41:00.865Z,22.52
2022-08-17T06:46:07.239Z,22.70
2022-08-17T06:51:19.803Z,22.90
2022-08-17T06:56:54.669Z,23.00
2022-08-17T07:01:56.888Z,23.12
2022-08-17T07:07:22.219Z,23.30
2022-08-17T07:12:30.013Z,23.40
2022-08-17T07:17:36.988Z,23.48
2022-08-17T07:22:59.632Z,23.60
2022-08-17T07:28:03.880Z,23.70
2022-08-17T07:33:20.448Z,23.70
2022-08-17T07:38:26.896Z,23.80
2022-08-17T07:43:29.733Z,24.02
2022-08-17T07:48:36.427Z,24.20
2022-08-17T07:53:34.814Z,24.40
2022-08-17T07:58:34.190Z,24.50
2022-08-17T08:03:34.186Z,24.70
2022-08-17T08:08:44.339Z,24.80
2022-08-17T08:13:46.202Z,24.90
2022-08-17T08:18:55.663Z,25.10
2022-08-17T08:24:11.093Z,25.30
2022-08-17T08:29:28.255Z,25.52
2022-08-17T08:35:00.735Z,25.78
2022-08-17T08:40:11.750Z,26.00
2022-08-17T08:45:21.698Z,26.12
2022-08-17T08:50:40.388Z,26.30
2022-08-17T08:55:56.308Z,26.40
2022-08-17T09:01:00.130Z,26.50
2022-08-17T09:06:37.729Z,26.60
2022-08-17T09:12:01.952Z,26.80
2022-08-17T09:17:13.810Z,27.00
2022-08-17T09:22:31.605Z,27.14
2022-08-17T09:27:51.734Z,27.40
2022-08-17T09:32:57.914Z,27.78
2022-08-17T09:38:04.970Z,28.18
2022-08-17T09:43:13.547Z,28.58
2022-08-17T09:48:19.122Z,29.04
2022-08-17T09:53:18.117Z,29.40
2022-08-17T09:58:31.810Z,29.66
2022-08-17T10:04:07.320Z,30.16
2022-08-17T10:09:16.198Z,30.60
2022-08-17T10:14:37.537Z,30.74
2022-08-17T10:19:53.402Z,30.18
2022-08-17T10:25:23.459Z,29.60
2022-08-17T10:30:29.180Z,29.20
2022-08-17T10:35:42.695Z,29.10
2022-08-17T10:40:55.442Z,29.20
2022-08-17T10:46:09.450Z,29.32
2022-08-17T10:51:42.431Z,29.72
2022-08-17T10:56:53.481Z,30.40
2022-08-17T11:02:17.003Z,31.10
2022-08-17T11:07:34.939Z,31.80
2022-08-17T11:13:02.530Z,32.30
2022-08-17T11:18:38.989Z,32.00
2022-08-17T11:24:22.174Z,31.18
2022-08-17T11:29:31.470Z,31.40
2022-08-17T11:34:33.105Z,31.60
2022-08-17T11:40:08.254Z,31.80
2022-08-17T11:45:34.625Z,31.88
2022-08-17T11:51:09.450Z,31.18
2022-08-17T11:56:13.505Z,30.70
2022-08-17T12:01:34.873Z,30.70
2022-08-17T12:06:46.389Z,30.60
2022-08-17T12:12:04.644Z,30.96
2022-08-17T12:17:14.325Z,31.80
2022-08-17T12:22:37.974Z,32.70
2022-08-17T12:28:06.719Z,33.60
2022-08-17T12:33:25.430Z,34.62
2022-08-17T12:38:33.214Z,35.46
2022-08-17T12:43:33.913Z,36.02
2022-08-17T12:48:34.807Z,36.56
2022-08-17T12:53:37.061Z,36.92
2022-08-17T12:58:53.630Z,37.26
2022-08-17T13:03:59.989Z,37.50
2022-08-17T13:09:09.543Z,37.30
2022-08-17T13:14:18.502Z,36.88
2022-08-17T13:19:40.007Z,36.50
2022-08-17T13:24:53.320Z,36.78
2022-08-17T13:29:59.748Z,37.60
2022-08-17T13:35:12.051Z,38.00
2022-08-17T13:40:53.377Z,37.80
2022-08-17T13:45:54.809Z,37.80
2022-08-17T13:51:38.391Z,37.30
2022-08-17T13:56:59.805Z,36.70
2022-08-17T14:01:58.935Z,37.00
2022-08-17T14:07:03.173Z,36.90
2022-08-17T14:12:04.558Z,36.76
2022-08-17T14:17:03.839Z,36.70
2022-08-17T14:22:03.633Z,36.66
2022-08-17T14:27:05.718Z,36.70
2022-08-17T14:32:18.424Z,36.70
2022-08-17T14:37:18.197Z,36.30
2022-08-17T14:42:17.674Z,36.50
2022-08-17T14:47:16.897Z,36.70
2022-08-17T14:52:21.927Z,36.90
2022-08-17T14:57:25.893Z,37.08
2022-08-17T15:02:44.130Z,36.86
2022-08-17T15:07:44.548Z,36.20
2022-08-17T15:12:44.491Z,36.10
2022-08-17T15:17:46.068Z,36.00
2022-08-17T15:22:50.054Z,36.00
2022-08-17T15:27:49.714Z,36.06
2022-08-17T15:32:54.100Z,35.90
2022-08-17T15:37:54.222Z,35.80
2022-08-17T15:42:53.217Z,35.70
2022-08-17T15:47:52.711Z,35.70
2022-08-17T15:52:58.178Z,35.70
2022-08-17T15:57:57.353Z,35.56
2022-08-17T16:03:45.049Z,35.10
2022-08-17T16:08:20.864Z,34.80
2022-08-17T16:13:21.326Z,34.60
2022-08-17T16:18:20.651Z,34.60
2022-08-17T16:23:20.822Z,34.50
2022-08-17T16:28:21.960Z,34.32
2022-08-17T16:33:21.694Z,34.20
2022-08-17T16:38:21.192Z,34.20
2022-08-17T16:43:20.645Z,34.00
2022-08-17T16:48:20.173Z,33.70
2022-08-17T16:53:21.986Z,33.40
2022-08-17T16:58:20.431Z,33.12
2022-08-17T17:03:24.350Z,32.80
2022-08-17T17:08:31.646Z,32.40
2022-08-17T17:13:38.996Z,32.10
2022-08-17T17:18:43.754Z,31.60
2022-08-17T17:23:56.034Z,31.04
2022-08-17T17:29:11.673Z,30.50
2022-08-17T17:34:17.358Z,29.94
2022-08-17T17:39:21.549Z,29.40
2022-08-17T17:44:27.519Z,28.90
2022-08-17T17:49:27.526Z,28.36
2022-08-17T17:54:54.340Z,27.88
2022-08-17T18:00:13.443Z,27.40
2022-08-17T18:05:22.683Z,27.10
2022-08-17T18:10:34.009Z,26.80
2022-08-17T18:15:41.451Z,26.60
2022-08-17T18:20:40.943Z,26.40
2022-08-17T18:25:55.678Z,26.20
2022-08-17T18:31:14.809Z,26.00
2022-08-17T18:36:14.877Z,25.80
2022-08-17T18:41:30.520Z,25.60
2022-08-17T18:46:37.651Z,25.40
2022-08-17T18:51:41.864Z,25.20
2022-08-17T18:56:44.884Z,25.00
2022-08-17T19:02:16.063Z,24.88
2022-08-17T19:07:33.676Z,24.70
2022-08-17T19:12:40.474Z,24.50
2022-08-17T19:17:49.282Z,24.40
2022-08-17T19:23:24.243Z,24.30
2022-08-17T19:28:29.846Z,24.20
2022-08-17T19:33:31.437Z,24.10
2022-08-17T19:38:46.564Z,24.00
2022-08-17T19:44:07.227Z,23.90
2022-08-17T19:49:18.167Z,23.80
2022-08-17T19:54:27.392Z,23.70
2022-08-17T19:59:49.601Z,23.58
2022-08-17T20:04:53.920Z,23.50
2022-08-17T20:10:04.271Z,23.40
2022-08-17T20:15:09.993Z,23.30
2022-08-17T20:20:26.879Z,23.20
2022-08-17T20:25:39.616Z,23.10
2022-08-17T20:30:43.879Z,23.00
2022-08-17T20:36:05.063Z,22.92
2022-08-17T20:41:18.212Z,22.90
2022-08-17T20:46:51.633Z,22.80
2022-08-17T20:52:07.825Z,22.80
2022-08-17T20:57:13.979Z,22.70
2022-08-17T21:02:24.726Z,22.70
2022-08-17T21:07:46.108Z,22.60
2022-08-17T21:12:49.370Z,22.54
2022-08-17T21:18:11.092Z,22.50
2022-08-17T21:23:28.246Z,22.48
2022-08-17T21:28:59.881Z,22.40
2022-08-17T21:34:29.715Z,22.40
2022-08-17T21:39:42.307Z,22.30
2022-08-17T21:44:48.229Z,22.26
2022-08-17T21:49:47.390Z,22.20
2022-08-17T21:54:53.266Z,22.20
2022-08-17T21:59:58.108Z,22.10
2022-08-17T22:05:06.905Z,22.10
2022-08-17T22:10:09.200Z,22.00
2022-08-17T22:15:17.741Z,21.90
2022-08-17T22:20:21.884Z,21.90
2022-08-17T22:25:29.904Z,21.80
2022-08-17T22:30:38.491Z,21.80
2022-08-17T22:35:50.244Z,21.70
2022-08-17T22:40:54.928Z,21.60
2022-08-17T22:45:58.324Z,21.50
2022-08-17T22:51:16.014Z,21.40
2022-08-17T22:56:41.266Z,21.30
2022-08-17T23:01:40.768Z,21.28
2022-08-17T23:06:43.009Z,21.20
2022-08-17T23:11:49.943Z,21.10
2022-08-17T23:16:50.389Z,21.00
2022-08-17T23:21:50.610Z,21.00
2022-08-17T23:26:49.531Z,20.90
2022-08-17T23:31:49.493Z,20.88
2022-08-17T23:36:53.380Z,20.80
2022-08-17T23:41:54.123Z,20.70
2022-08-17T23:46:53.802Z,20.60
2022-08-17T23:51:54.968Z,20.50
2022-08-17T23:56:54.459Z,20.50
